createdAt,value
2022-09-04T00:02:20.506Z,75.69
2022-09-04T00:05:01.233Z,76.85
2022-09-04T00:07:35.512Z,76.62
2022-09-04T00:10:13.149Z,74.74
2022-09-04T00:13:12.693Z,74.10
2022-09-04T00:15:44.780Z,74.58
2022-09-04T00:18:29.391Z,73.90
2022-09-04T00:21:24.479Z,74.06
2022-09-04T00:23:59.117Z,74.48
2022-09-04T00:26:38.885Z,74.97
2022-09-04T00:29:18.606Z,74.27
2022-09-04T00:32:03.404Z,74.05
2022-09-04T00:34:55.833Z,76.00
2022-09-04T00:37:26.741Z,76.44
2022-09-04T00:40:04.039Z,75.78
2022-09-04T00:43:07.230Z,75.70
2022-09-04T00:45:51.132Z,74.89
2022-09-04T00:48:57.256Z,76.52
2022-09-04T00:51:27.561Z,76.35
2022-09-04T00:54:04.964Z,76.38
2022-09-04T00:56:41.174Z,77.21
2022-09-04T00:59:35.212Z,75.88
2022-09-04T01:02:12.251Z,75.61
2022-09-04T01:04:50.614Z,75.30
2022-09-04T01:07:50.092Z,76.66
2022-09-04T01:10:44.485Z,75.85
2022-09-04T01:13:24.175Z,74.54
2022-09-04T01:16:03.389Z,73.89
2022-09-04T01:18:38.116Z,73.89
2022-09-04T01:21:30.856Z,70.34
2022-09-04T01:24:07.320Z,70.69
2022-09-04T01:26:53.035Z,68.98
2022-09-04T01:30:09.777Z,69.59
2022-09-04T01:32:56.197Z,72.70
2022-09-04T01:35:44.619Z,72.97
2022-09-04T01:38:25.693Z,74.85
2022-09-04T01:41:27.389Z,74.91
2022-09-04T01:43:55.057Z,71.81
2022-09-04T01:46:34.869Z,72.51
2022-09-04T01:49:11.419Z,72.39
2022-09-04T01:51:46.970Z,70.85
2022-09-04T01:54:31.758Z,69.88
2022-09-04T01:57:14.361Z,71.14
2022-09-04T02:00:10.239Z,69.40
2022-09-04T02:03:05.909Z,69.15
2022-09-04T02:05:42.578Z,68.21
2022-09-04T02:08:52.552Z,68.09
2022-09-04T02:11:27.900Z,68.20
2022-09-04T02:14:11.211Z,67.52
2022-09-04T02:16:49.345Z,67.95
2022-09-04T02:19:45.035Z,67.52
2022-09-04T02:22:30.761Z,67.49
2022-09-04T02:25:22.671Z,66.43
2022-09-04T02:28:19.498Z,67.65
2022-09-04T02:31:05.523Z,67.90
2022-09-04T02:34:13.440Z,67.47
2022-09-04T02:36:50.304Z,66.65
2022-09-04T02:39:35.821Z,66.78
2022-09-04T02:42:27.890Z,67.48
2022-09-04T02:45:10.149Z,66.15
2022-09-04T02:48:13.661Z,68.15
2022-09-04T02:50:50.262Z,68.51
2022-09-04T02:53:35.632Z,66.82
2022-09-04T02:56:21.697Z,66.49
2022-09-04T02:59:11.877Z,64.89
2022-09-04T03:02:04.162Z,64.17
2022-09-04T03:04:50.120Z,65.05
2022-09-04T03:08:04.164Z,65.51
2022-09-04T03:10:41.937Z,65.26
2022-09-04T03:13:32.592Z,65.06
2022-09-04T03:16:10.396Z,64.97
2022-09-04T03:19:09.750Z,65.61
2022-09-04T03:21:49.680Z,67.47
2022-09-04T03:24:28.369Z,66.98
2022-09-04T03:26:59.710Z,68.21
2022-09-04T03:29:54.370Z,70.04
2022-09-04T03:32:32.532Z,68.91
2022-09-04T03:35:03.759Z,68.39
2022-09-04T03:37:53.688Z,68.02
2022-09-04T03:40:57.594Z,69.18
2022-09-04T03:43:49.816Z,69.63
2022-09-04T03:47:03.382Z,68.26
2022-09-04T03:50:23.624Z,67.73
2022-09-04T03:53:19.185Z,67.35
2022-09-04T03:56:02.749Z,68.33
2022-09-04T03:59:03.570Z,67.90
2022-09-04T04:01:31.127Z,71.07
2022-09-04T04:04:04.856Z,71.51
2022-09-04T04:06:40.805Z,71.72
2022-09-04T04:09:29.937Z,69.59
2022-09-04T04:12:35.065Z,70.35
2022-09-04T04:15:27.772Z,69.00
2022-09-04T04:18:22.165Z,67.97
2022-09-04T04:20:59.637Z,70.51
2022-09-04T04:24:00.057Z,71.21
2022-09-04T04:26:50.611Z,69.22
2022-09-04T04:29:51.338Z,68.52
2022-09-04T04:32:37.798Z,68.55
2022-09-04T04:35:20.146Z,67.66
2022-09-04T04:38:05.774Z,69.30
2022-09-04T04:41:17.277Z,68.73
2022-09-04T04:43:56.892Z,68.04
2022-09-04T04:46:39.379Z,67.83
2022-09-04T04:49:33.526Z,67.89
2022-09-04T04:52:21.660Z,67.68
2022-09-04T04:54:57.088Z,67.50
2022-09-04T04:57:53.445Z,67.51
2022-09-04T05:00:27.701Z,68.24
2022-09-04T05:03:12.796Z,67.47
2022-09-04T05:05:57.049Z,67.41
2022-09-04T05:09:03.144Z,66.76
2022-09-04T05:11:36.825Z,67.58
2022-09-04T05:14:12.181Z,68.12
2022-09-04T05:16:54.855Z,68.21
2022-09-04T05:19:41.515Z,67.70
2022-09-04T05:22:20.338Z,66.96
2022-09-04T05:25:02.548Z,68.25
2022-09-04T05:27:38.424Z,67.49
2022-09-04T05:30:10.192Z,66.96
2022-09-04T05:32:54.509Z,66.82
2022-09-04T05:35:35.137Z,66.20
2022-09-04T05:38:10.742Z,66.10
2022-09-04T05:40:44.241Z,66.26
2022-09-04T05:43:11.767Z,65.28
2022-09-04T05:45:51.526Z,65.86
2022-09-04T05:48:26.791Z,65.20
2022-09-04T05:51:36.402Z,65.40
2022-09-04T05:54:17.826Z,66.17
2022-09-04T05:57:10.378Z,66.19
2022-09-04T05:59:47.867Z,65.14
2022-09-04T06:02:18.226Z,66.10
2022-09-04T06:05:04.776Z,66.76
2022-09-04T06:07:53.963Z,65.80
2022-09-04T06:10:36.994Z,65.12
2022-09-04T06:13:42.099Z,65.98
2022-09-04T06:16:26.437Z,65.40
2022-09-04T06:19:21.323Z,64.75
2022-09-04T06:21:49.019Z,64.10
2022-09-04T06:24:32.694Z,64.92
2022-09-04T06:27:15.733Z,64.49
2022-09-04T06:30:02.122Z,65.38
2022-09-04T06:32:45.734Z,65.00
2022-09-04T06:35:18.345Z,64.80
2022-09-04T06:37:58.367Z,63.74
2022-09-04T06:40:45.109Z,62.91
2022-09-04T06:43:42.219Z,63.41
2022-09-04T06:46:31.649Z,64.26
2022-09-04T06:49:21.202Z,63.97
2022-09-04T06:52:13.084Z,62.11
2022-09-04T06:54:59.444Z,63.25
2022-09-04T06:57:54.746Z,62.63
2022-09-04T07:00:22.416Z,62.39
2022-09-04T07:03:14.861Z,62.58
2022-09-04T07:05:53.034Z,63.46
2022-09-04T07:08:29.452Z,62.35
2022-09-04T07:11:33.800Z,61.27
2022-09-04T07:14:20.173Z,61.37
2022-09-04T07:17:03.963Z,60.02
2022-09-04T07:19:39.269Z,59.57
2022-09-04T07:22:35.359Z,60.36
2022-09-04T07:25:13.561Z,60.30
2022-09-04T07:28:18.885Z,60.13
2022-09-04T07:30:52.528Z,59.86
2022-09-04T07:33:40.536Z,60.39
2022-09-04T07:36:18.234Z,59.94
2022-09-04T07:38:51.719Z,59.18
2022-09-04T07:41:44.269Z,59.45
2022-09-04T07:44:29.204Z,59.74
2022-09-04T07:47:23.077Z,58.71
2022-09-04T07:50:09.426Z,59.28
2022-09-04T07:53:08.336Z,59.46
2022-09-04T07:55:43.263Z,60.66
2022-09-04T07:58:45.601Z,59.05
2022-09-04T08:01:40.070Z,58.11
2022-09-04T08:04:20.307Z,58.36
2022-09-04T08:06:54.015Z,58.32
2022-09-04T08:10:09.784Z,58.19
2022-09-04T08:12:39.851Z,58.69
2022-09-04T08:15:21.920Z,57.24
2022-09-04T08:18:23.696Z,56.76
2022-09-04T08:21:19.765Z,55.76
2022-09-04T08:24:13.834Z,55.82
2022-09-04T08:26:55.077Z,56.43
2022-09-04T08:29:40.850Z,56.09
2022-09-04T08:32:46.329Z,55.01
2022-09-04T08:35:20.052Z,55.14
2022-09-04T08:38:00.409Z,55.94
2022-09-04T08:40:53.878Z,55.52
2022-09-04T08:43:36.318Z,55.05
2022-09-04T08:46:34.933Z,55.01
2022-09-04T08:49:10.525Z,55.31
2022-09-04T08:52:02.595Z,54.40
2022-09-04T08:55:11.574Z,53.60
2022-09-04T08:57:49.524Z,53.37
2022-09-04T09:00:21.768Z,52.65
2022-09-04T09:03:13.654Z,52.85
2022-09-04T09:06:10.482Z,52.67
2022-09-04T09:08:53.229Z,54.66
2022-09-04T09:11:51.028Z,53.87
2022-09-04T09:14:43.229Z,54.93
2022-09-04T09:17:16.981Z,53.92
2022-09-04T09:20:00.751Z,55.08
2022-09-04T09:22:40.805Z,53.55
2022-09-04T09:25:21.056Z,53.86
2022-09-04T09:28:30.446Z,52.65
2022-09-04T09:31:34.492Z,53.16
2022-09-04T09:34:43.495Z,51.73
2022-09-04T09:37:40.329Z,52.10
2022-09-04T09:40:33.099Z,51.28
2022-09-04T09:43:24.404Z,50.76
2022-09-04T09:46:04.583Z,51.33
2022-09-04T09:48:32.432Z,50.83
2022-09-04T09:51:15.421Z,51.94
2022-09-04T09:54:15.393Z,52.02
2022-09-04T09:57:12.643Z,50.97
2022-09-04T10:00:05.970Z,50.42
2022-09-04T10:02:45.190Z,50.21
2022-09-04T10:05:46.929Z,49.55
2022-09-04T10:08:51.994Z,49.88
2022-09-04T10:11:36.795Z,50.48
2022-09-04T10:14:23.178Z,50.78
2022-09-04T10:17:03.616Z,51.11
2022-09-04T10:19:46.468Z,50.80
2022-09-04T10:22:58.477Z,50.95
2022-09-04T10:26:09.406Z,50.17
2022-09-04T10:29:09.987Z,51.52
2022-09-04T10:31:46.102Z,51.47
2022-09-04T10:34:46.840Z,51.45
2022-09-04T10:37:36.169Z,51.67
2022-09-04T10:40:27.182Z,51.63
2022-09-04T10:43:09.775Z,52.59
2022-09-04T10:45:41.496Z,54.96
2022-09-04T10:48:31.037Z,56.78
2022-09-04T10:51:35.095Z,57.59
2022-09-04T10:54:16.845Z,59.11
2022-09-04T10:57:04.130Z,61.72
2022-09-04T10:59:49.574Z,61.30
2022-09-04T11:02:35.728Z,62.91
2022-09-04T11:05:42.233Z,62.95
2022-09-04T11:08:13.686Z,60.95
2022-09-04T11:10:59.082Z,62.24
2022-09-04T11:14:06.549Z,62.11
2022-09-04T11:17:15.783Z,61.59
2022-09-04T11:20:02.148Z,58.29
2022-09-04T11:22:40.957Z,56.91
2022-09-04T11:25:33.394Z,54.76
2022-09-04T11:28:13.126Z,52.81
2022-09-04T11:31:08.232Z,52.11
2022-09-04T11:34:14.133Z,50.91
2022-09-04T11:37:15.380Z,50.19
2022-09-04T11:39:59.213Z,50.01
2022-09-04T11:42:41.354Z,47.96
2022-09-04T11:45:17.591Z,48.92
2022-09-04T11:48:12.073Z,48.94
2022-09-04T11:51:01.544Z,49.04
2022-09-04T11:54:02.230Z,48.95
2022-09-04T11:56:40.680Z,48.64
2022-09-04T11:59:28.287Z,48.13
2022-09-04T12:02:23.653Z,47.61
2022-09-04T12:05:16.090Z,47.72
2022-09-04T12:08:04.512Z,46.78
2022-09-04T12:11:04.771Z,47.19
2022-09-04T12:13:58.070Z,46.29
2022-09-04T12:16:47.467Z,47.04
2022-09-04T12:19:55.146Z,45.89
2022-09-04T12:22:45.969Z,44.82
2022-09-04T12:25:28.671Z,45.16
2022-09-04T12:28:16.120Z,43.98
2022-09-04T12:31:02.230Z,43.94
2022-09-04T12:33:51.530Z,43.28
2022-09-04T12:36:42.182Z,43.15
2022-09-04T12:39:21.852Z,44.55
2022-09-04T12:42:19.235Z,46.06
2022-09-04T12:44:59.956Z,43.97
2022-09-04T12:47:43.375Z,43.75
2022-09-04T12:50:19.055Z,43.21
2022-09-04T12:53:12.615Z,43.13
2022-09-04T12:55:51.417Z,43.53
2022-09-04T12:58:42.945Z,42.57
2022-09-04T13:01:39.063Z,43.78
2022-09-04T13:04:06.397Z,43.33
2022-09-04T13:06:56.956Z,42.70
2022-09-04T13:09:28.953Z,41.45
2022-09-04T13:12:21.560Z,44.13
2022-09-04T13:15:19.455Z,43.45
2022-09-04T13:18:14.184Z,42.29
2022-09-04T13:21:14.020Z,41.53
2022-09-04T13:23:49.305Z,41.08
2022-09-04T13:26:42.646Z,41.49
2022-09-04T13:29:16.090Z,42.01
2022-09-04T13:32:00.494Z,41.30
2022-09-04T13:34:29.103Z,41.91
2022-09-04T13:37:24.614Z,42.46
2022-09-04T13:40:01.056Z,41.50
2022-09-04T13:43:04.751Z,40.98
2022-09-04T13:45:41.976Z,40.96
2022-09-04T13:48:32.644Z,41.67
2022-09-04T13:51:18.846Z,40.70
2022-09-04T13:54:05.180Z,38.90
2022-09-04T13:56:35.533Z,39.41
2022-09-04T13:59:09.445Z,38.95
2022-09-04T14:01:46.181Z,38.51
2022-09-04T14:04:50.860Z,37.69
2022-09-04T14:07:26.989Z,37.25
2022-09-04T14:09:56.820Z,38.35
2022-09-04T14:12:53.753Z,38.60
2022-09-04T14:15:32.826Z,37.10
2022-09-04T14:18:14.117Z,37.00
2022-09-04T14:20:52.449Z,39.16
2022-09-04T14:23:41.573Z,39.58
2022-09-04T14:26:32.078Z,38.43
2022-09-04T14:29:07.458Z,38.86
2022-09-04T14:31:46.865Z,39.22
2022-09-04T14:34:56.112Z,38.86
2022-09-04T14:37:48.397Z,38.45
2022-09-04T14:40:37.396Z,37.62
2022-09-04T14:43:28.522Z,37.40
2022-09-04T14:46:28.580Z,37.67
2022-09-04T14:49:03.171Z,38.77
2022-09-04T14:51:43.609Z,39.65
2022-09-04T14:54:18.480Z,39.68
2022-09-04T14:56:51.283Z,39.24
2022-09-04T14:59:18.802Z,39.80
2022-09-04T15:02:13.996Z,39.90
2022-09-04T15:04:54.592Z,39.20
2022-09-04T15:07:43.990Z,38.64
2022-09-04T15:10:35.978Z,38.41
2022-09-04T15:13:21.749Z,38.94
2022-09-04T15:16:10.671Z,39.50
2022-09-04T15:18:56.524Z,38.15
2022-09-04T15:21:36.145Z,39.20
2022-09-04T15:24:17.968Z,38.23
2022-09-04T15:27:12.611Z,39.50
2022-09-04T15:30:02.229Z,40.30
2022-09-04T15:32:42.605Z,39.93
2022-09-04T15:35:33.649Z,40.25
2022-09-04T15:38:21.199Z,39.92
2022-09-04T15:41:15.224Z,40.07
2022-09-04T15:43:55.795Z,40.21
2022-09-04T15:46:47.799Z,40.46
2022-09-04T15:49:20.677Z,40.72
2022-09-04T15:51:54.969Z,40.89
2022-09-04T15:54:34.447Z,41.57
2022-09-04T15:57:08.474Z,41.88
2022-09-04T15:59:44.327Z,41.66
2022-09-04T16:02:21.456Z,41.84
2022-09-04T16:05:11.100Z,42.40
2022-09-04T16:07:46.618Z,42.08
2022-09-04T16:10:28.808Z,41.78
2022-09-04T16:12:59.739Z,41.15
2022-09-04T16:15:31.881Z,41.13
2022-09-04T16:18:08.501Z,41.99
2022-09-04T16:20:53.207Z,42.13
2022-09-04T16:23:30.194Z,42.27
2022-09-04T16:25:59.883Z,42.79
2022-09-04T16:28:35.254Z,42.86
2022-09-04T16:31:10.079Z,42.43
2022-09-04T16:33:47.130Z,42.44
2022-09-04T16:36:26.190Z,42.68
2022-09-04T16:38:59.797Z,42.80
2022-09-04T16:41:37.612Z,43.02
2022-09-04T16:44:15.755Z,43.29
2022-09-04T16:47:05.912Z,43.26
2022-09-04T16:49:47.156Z,43.58
2022-09-04T16:52:22.032Z,44.15
2022-09-04T16:55:11.479Z,44.01
2022-09-04T16:58:07.413Z,44.07
2022-09-04T17:00:59.939Z,45.13
2022-09-04T17:04:14.138Z,45.73
2022-09-04T17:06:54.310Z,45.72
2022-09-04T17:09:57.256Z,45.72
2022-09-04T17:12:56.244Z,45.80
2022-09-04T17:15:53.329Z,45.99
2022-09-04T17:18:26.817Z,48.26
2022-09-04T17:24:01.294Z,48.87
2022-09-04T17:28:56.217Z,49.84
2022-09-04T17:29:10.501Z,49.82
2022-09-04T17:29:55.302Z,50.92
2022-09-04T17:33:46.145Z,51.40
2022-09-04T17:40:32.263Z,50.67
2022-09-04T17:40:55.265Z,49.93
2022-09-04T17:41:52.124Z,50.12
2022-09-04T17:44:28.412Z,50.03
2022-09-04T17:47:19.956Z,50.10
2022-09-04T17:49:52.194Z,51.26
2022-09-04T17:52:32.220Z,52.23
2022-09-04T17:55:07.605Z,52.24
2022-09-04T17:58:01.276Z,52.55
2022-09-04T18:00:34.082Z,52.83
2022-09-04T18:03:25.983Z,54.73
2022-09-04T18:06:02.029Z,54.88
2022-09-04T18:08:39.976Z,55.88
2022-09-04T18:11:13.474Z,56.14
2022-09-04T18:14:02.909Z,56.17
2022-09-04T18:16:36.549Z,57.69
2022-09-04T18:19:37.017Z,57.62
2022-09-04T18:22:26.149Z,58.12
2022-09-04T18:25:16.344Z,58.11
2022-09-04T18:28:06.251Z,58.37
2022-09-04T18:37:06.288Z,59.21
2022-09-04T18:37:17.419Z,59.37
2022-09-04T18:37:25.484Z,59.63
2022-09-04T18:39:51.841Z,60.49
2022-09-04T18:46:06.564Z,60.71
2022-09-04T18:50:28.111Z,60.24
2022-09-04T18:50:48.100Z,60.31
2022-09-04T18:51:30.536Z,61.43
2022-09-04T18:54:19.948Z,62.50
2022-09-04T18:56:53.195Z,64.12
2022-09-04T18:59:28.606Z,64.25
2022-09-04T19:02:03.628Z,65.30
2022-09-04T19:04:36.187Z,64.92
2022-09-04T19:07:18.120Z,66.81
2022-09-04T19:09:56.124Z,68.07
2022-09-04T19:12:35.791Z,67.46
2022-09-04T19:15:45.825Z,66.71
2022-09-04T19:18:45.564Z,66.27
2022-09-04T19:21:38.343Z,66.39
2022-09-04T19:24:25.211Z,65.43
2022-09-04T19:27:26.881Z,64.74
2022-09-04T19:30:19.937Z,63.41
2022-09-04T19:33:23.221Z,64.74
2022-09-04T19:36:12.555Z,67.77
2022-09-04T19:44:36.655Z,67.78
2022-09-04T19:45:55.529Z,67.25
2022-09-04T19:46:01.098Z,67.34
2022-09-04T19:47:44.611Z,67.52
2022-09-04T19:53:19.394Z,67.36
2022-09-04T19:53:31.646Z,67.24
2022-09-04T19:56:26.158Z,67.15
2022-09-04T19:58:58.259Z,66.68
2022-09-04T20:01:31.153Z,67.67
2022-09-04T20:04:09.645Z,70.00
2022-09-04T20:06:46.777Z,70.56
2022-09-04T20:09:46.225Z,71.58
2022-09-04T20:12:26.924Z,70.40
2022-09-04T20:15:07.875Z,68.36
2022-09-04T20:18:04.270Z,67.65
2022-09-04T20:20:44.973Z,68.08
2022-09-04T20:23:34.042Z,67.28
2022-09-04T20:26:04.961Z,67.33
2022-09-04T20:28:51.059Z,67.32
2022-09-04T20:31:33.268Z,66.36
2022-09-04T20:34:22.209Z,67.15
2022-09-04T20:37:00.290Z,66.75
2022-09-04T20:39:41.777Z,66.32
2022-09-04T20:42:20.148Z,65.67
2022-09-04T20:46:46.856Z,65.36
2022-09-04T20:52:49.131Z,65.93
2022-09-04T20:53:05.329Z,66.12
2022-09-04T20:53:45.698Z,65.94
2022-09-04T20:58:05.502Z,66.35
2022-09-04T21:03:11.325Z,66.84
2022-09-04T21:03:22.527Z,66.86
2022-09-04T21:05:54.269Z,67.02
2022-09-04T21:08:43.640Z,67.71
2022-09-04T21:11:40.702Z,67.68
2022-09-04T21:14:45.625Z,67.81
2022-09-04T21:17:33.390Z,68.05
2022-09-04T21:20:08.575Z,67.34
2022-09-04T21:22:39.249Z,66.64
2022-09-04T21:25:31.584Z,66.44
2022-09-04T21:28:18.241Z,68.43
2022-09-04T21:30:52.222Z,67.34
2022-09-04T21:33:28.234Z,67.79
2022-09-04T21:36:25.334Z,69.40
2022-09-04T21:39:17.391Z,70.44
2022-09-04T21:42:20.027Z,69.79
2022-09-04T21:45:09.333Z,71.38
2022-09-04T21:48:17.963Z,71.93
2022-09-04T21:51:04.399Z,72.65
2022-09-04T21:53:31.886Z,72.48
2022-09-04T21:57:49.083Z,72.52
2022-09-04T22:02:38.832Z,71.71
2022-09-04T22:02:57.667Z,72.28
2022-09-04T22:05:38.771Z,71.97
2022-09-04T22:13:30.304Z,72.62
2022-09-04T22:13:33.558Z,72.99
2022-09-04T22:14:36.255Z,73.21
2022-09-04T22:17:24.918Z,73.75
2022-09-04T22:20:40.303Z,73.55
2022-09-04T22:23:26.454Z,73.40
2022-09-04T22:26:31.680Z,73.24
2022-09-04T22:29:18.601Z,71.72
2022-09-04T22:32:20.299Z,73.42
2022-09-04T22:34:57.364Z,74.40
2022-09-04T22:37:46.530Z,74.72
2022-09-04T22:40:26.092Z,73.34
2022-09-04T22:43:02.452Z,73.63
2022-09-04T22:46:02.946Z,73.54
2022-09-04T22:49:12.511Z,74.58
2022-09-04T22:51:54.753Z,74.48
2022-09-04T22:55:36.290Z,74.90
2022-09-04T22:58:19.325Z,75.79
2022-09-04T23:01:14.183Z,75.60
2022-09-04T23:03:54.033Z,73.99
2022-09-04T23:09:03.098Z,74.83
2022-09-04T23:13:45.086Z,75.30
2022-09-04T23:13:51.607Z,77.19
2022-09-04T23:16:02.634Z,78.02
2022-09-04T23:22:27.709Z,76.34
2022-09-04T23:26:34.109Z,76.30
2022-09-04T23:26:44.479Z,77.63
2022-09-04T23:27:37.400Z,78.12
2022-09-04T23:30:10.219Z,77.52
2022-09-04T23:32:53.981Z,79.03
2022-09-04T23:35:46.781Z,79.19
2022-09-04T23:38:39.268Z,80.31
2022-09-04T23:41:30.310Z,80.49
2022-09-04T23:44:38.572Z,79.85
2022-09-04T23:47:48.091Z,78.41
2022-09-04T23:50:35.052Z,78.98
2022-09-04T23:53:27.706Z,77.95
2022-09-04T23:56:30.635Z,78.63
2022-09-04T23:59:40.477Z,79.27
